createdAt,value
2023-05-10T00:00:41.511Z,-18597.69
2023-05-10T00:03:08.477Z,-18597.69
2023-05-10T00:05:35.809Z,-18597.69
2023-05-10T00:08:02.522Z,-18597.69
2023-05-10T00:10:29.324Z,-18597.69
2023-05-10T00:12:57.024Z,-18597.69
2023-05-10T00:15:23.918Z,-18597.69
2023-05-10T00:17:50.640Z,-18597.69
2023-05-10T00:20:18.221Z,-18597.69
2023-05-10T00:22:45.492Z,-18597.69
2023-05-10T00:25:12.246Z,-18597.69
2023-05-10T00:27:39.030Z,-18597.69
2023-05-10T00:30:06.483Z,-18597.69
2023-05-10T00:32:33.707Z,-18597.69
2023-05-10T00:35:00.442Z,-18597.69
2023-05-10T00:37:27.573Z,-18597.69
2023-05-10T00:39:55.487Z,-18597.69
2023-05-10T00:42:22.383Z,-18597.69
2023-05-10T00:44:49.632Z,-18597.69
2023-05-10T00:47:18.099Z,-18597.69
2023-05-10T00:49:45.960Z,-18597.69
2023-05-10T00:52:12.935Z,-18597.69
2023-05-10T00:54:40.230Z,-18597.69
2023-05-10T00:57:07.062Z,-18597.69
2023-05-10T00:59:34.206Z,-18597.69
2023-05-10T01:02:01.418Z,-18597.69
2023-05-10T01:04:30.349Z,-18597.69
2023-05-10T01:06:58.660Z,-18597.69
2023-05-10T01:09:27.396Z,-18597.69
2023-05-10T01:11:55.224Z,-18597.69
2023-05-10T01:14:23.371Z,-18597.69
2023-05-10T01:16:51.308Z,-18597.69
2023-05-10T01:19:25.183Z,-18597.69
2023-05-10T01:21:52.019Z,-18597.69
2023-05-10T01:24:43.229Z,-18597.69
2023-05-10T01:27:47.555Z,-18597.69
2023-05-10T01:30:17.341Z,-18597.69
2023-05-10T01:33:17.808Z,-18597.69
2023-05-10T01:35:48.158Z,-18597.69
2023-05-10T01:38:44.727Z,-18597.69
2023-05-10T01:41:59.819Z,-18597.69
2023-05-10T01:44:38.721Z,-18597.69
2023-05-10T01:47:15.266Z,-18597.69
2023-05-10T01:49:50.635Z,-18597.69
2023-05-10T01:52:20.854Z,-18597.69
2023-05-10T01:54:56.748Z,-18597.69
2023-05-10T01:57:28.725Z,-18597.69
2023-05-10T01:59:56.625Z,-18597.69
2023-05-10T02:02:25.657Z,-18597.69
2023-05-10T02:04:54.270Z,-18597.69
2023-05-10T02:07:22.915Z,-18597.69
2023-05-10T02:09:50.531Z,-18597.69
2023-05-10T02:12:18.707Z,-18597.69
2023-05-10T02:14:46.304Z,-18597.69
2023-05-10T02:17:14.557Z,-18597.69
2023-05-10T02:19:43.580Z,-18597.69
2023-05-10T02:22:13.221Z,-18597.69
2023-05-10T02:24:41.596Z,-18597.69
2023-05-10T02:27:11.000Z,-18597.69
2023-05-10T02:29:38.534Z,-18597.69
2023-05-10T02:32:07.631Z,-18597.69
2023-05-10T02:34:34.923Z,-18597.69
2023-05-10T02:37:03.991Z,-18597.69
2023-05-10T02:39:32.846Z,-18597.69
2023-05-10T02:42:01.674Z,-18597.69
2023-05-10T02:44:32.190Z,-18597.69
2023-05-10T02:46:59.633Z,-18597.69
2023-05-10T02:49:26.525Z,-18597.69
2023-05-10T02:52:00.624Z,-18597.69
2023-05-10T02:54:33.045Z,-18597.69
2023-05-10T02:57:02.878Z,-18597.69
2023-05-10T02:59:29.723Z,-18597.69
2023-05-10T03:01:56.747Z,-18597.69
2023-05-10T03:04:23.675Z,-18597.69
2023-05-10T03:06:51.631Z,-18597.69
2023-05-10T03:09:18.951Z,-18597.69
2023-05-10T03:12:09.276Z,-18597.69
2023-05-10T03:15:00.971Z,-18597.69
2023-05-10T03:17:38.742Z,-18597.69
2023-05-10T03:20:10.998Z,-18597.69
2023-05-10T03:22:42.383Z,-18597.69
2023-05-10T03:25:12.901Z,-18597.69
2023-05-10T03:27:43.907Z,-18597.69
2023-05-10T03:30:15.352Z,-18597.69
2023-05-10T03:32:42.509Z,-18597.69
2023-05-10T03:35:14.364Z,-18597.69
2023-05-10T03:37:42.127Z,-18597.69
2023-05-10T03:40:11.126Z,-18597.69
2023-05-10T03:42:40.731Z,-18597.69
2023-05-10T03:45:08.792Z,-18597.69
2023-05-10T03:47:35.806Z,-18597.69
2023-05-10T03:50:03.560Z,-18597.69
2023-05-10T03:52:30.878Z,-18597.69
2023-05-10T03:54:57.959Z,-18597.69
2023-05-10T03:57:24.996Z,-18597.69
2023-05-10T03:59:52.274Z,-18597.69
2023-05-10T04:02:19.750Z,-18597.69
2023-05-10T04:04:47.013Z,-18597.69
2023-05-10T04:07:14.123Z,-18597.69
2023-05-10T04:09:41.329Z,-18597.69
2023-05-10T04:12:10.711Z,-18597.69
2023-05-10T04:14:38.600Z,-18597.69
2023-05-10T04:17:05.725Z,-18597.69
2023-05-10T04:19:33.174Z,-18597.69
2023-05-10T04:22:00.830Z,-18597.69
2023-05-10T04:24:27.695Z,-18597.69
2023-05-10T04:26:57.646Z,-18597.69
2023-05-10T04:29:24.953Z,-18597.69
2023-05-10T04:31:52.209Z,-18597.69
2023-05-10T04:34:19.314Z,-18597.69
2023-05-10T04:36:46.151Z,-18597.69
2023-05-10T04:39:13.141Z,-18597.69
2023-05-10T04:41:39.968Z,-18597.69
2023-05-10T04:44:07.413Z,-18597.69
2023-05-10T04:46:34.603Z,-18597.69
2023-05-10T04:49:01.539Z,-18597.69
2023-05-10T04:51:28.246Z,-18597.69
2023-05-10T04:54:05.397Z,-18597.69
2023-05-10T04:56:33.193Z,-18597.69
2023-05-10T04:59:00.175Z,-18597.69
2023-05-10T05:01:27.082Z,-18597.69
2023-05-10T05:03:54.391Z,-18597.69
2023-05-10T05:06:22.351Z,-18597.69
2023-05-10T05:08:50.709Z,-18597.69
2023-05-10T05:11:18.350Z,-18597.69
2023-05-10T05:13:45.087Z,-18597.69
2023-05-10T05:16:14.894Z,-18597.69
2023-05-10T05:18:41.666Z,-18597.69
2023-05-10T05:21:19.309Z,-18597.69
2023-05-10T05:23:46.658Z,-18597.69
2023-05-10T05:26:13.619Z,-18597.69
2023-05-10T05:28:40.482Z,-18597.69
2023-05-10T05:31:10.301Z,-18597.69
2023-05-10T05:33:37.771Z,-18597.69
2023-05-10T05:36:06.508Z,-18597.69
2023-05-10T05:38:33.473Z,-18597.69
2023-05-10T05:41:00.398Z,-18597.69
2023-05-10T05:43:27.379Z,-18597.69
2023-05-10T05:45:55.216Z,-18597.69
2023-05-10T05:48:22.451Z,-18597.69
2023-05-10T05:50:49.464Z,-18597.69
2023-05-10T05:53:17.006Z,-18597.69
2023-05-10T05:55:58.738Z,-18597.69
2023-05-10T05:58:26.425Z,-18597.69
2023-05-10T06:00:53.923Z,-18597.69
2023-05-10T06:03:21.829Z,-18597.69
2023-05-10T06:05:49.516Z,-18597.69
2023-05-10T06:08:16.551Z,-18597.69
2023-05-10T06:10:43.402Z,-18597.69
2023-05-10T06:13:10.450Z,-18597.69
2023-05-10T06:15:37.377Z,-18597.69
2023-05-10T06:18:04.364Z,-18597.69
2023-05-10T06:20:32.752Z,-18597.69
2023-05-10T06:23:00.502Z,-18597.69
2023-05-10T06:25:27.466Z,-18597.69
2023-05-10T06:27:58.478Z,-18597.69
2023-05-10T06:30:29.667Z,-18597.69
2023-05-10T06:32:57.021Z,-18597.69
2023-05-10T06:35:24.083Z,-18597.69
2023-05-10T06:37:51.346Z,-18597.69
2023-05-10T06:40:18.366Z,-18597.69
2023-05-10T06:42:48.025Z,-18597.69
2023-05-10T06:45:16.033Z,-18597.69
2023-05-10T06:47:43.428Z,-18597.69
2023-05-10T06:50:11.009Z,-18597.69
2023-05-10T06:52:38.442Z,-18597.69
2023-05-10T06:55:06.253Z,-18597.69
2023-05-10T06:57:33.052Z,-18597.69
2023-05-10T07:00:00.310Z,-18597.69
2023-05-10T07:02:27.695Z,-18597.69
2023-05-10T07:04:55.355Z,-18597.69
2023-05-10T07:07:22.375Z,-18597.69
2023-05-10T07:09:50.044Z,-18597.69
2023-05-10T07:12:17.160Z,-18597.69
2023-05-10T07:14:44.595Z,-18597.69
2023-05-10T07:17:11.503Z,-18597.69
2023-05-10T07:19:38.537Z,-18597.69
2023-05-10T07:22:05.375Z,-18596.16
2023-05-10T07:24:33.224Z,-18596.16
2023-05-10T07:27:01.984Z,-17809.88
2023-05-10T07:29:29.691Z,-18596.16
2023-05-10T07:31:58.758Z,-18071.97
2023-05-10T07:34:26.538Z,-17547.72
2023-05-10T07:36:53.829Z,-16499.03
2023-05-10T07:39:27.814Z,-15974.56
2023-05-10T07:41:56.308Z,-11776.25
2023-05-10T07:44:23.454Z,-3892.03
2023-05-10T07:46:50.734Z,2690.50
2023-05-10T07:49:18.072Z,5063.00
2023-05-10T07:51:45.292Z,6645.44
2023-05-10T07:54:12.377Z,10604.44
2023-05-10T07:56:40.841Z,7436.91
2023-05-10T07:59:09.367Z,25420.41
2023-05-10T08:01:37.592Z,24625.25
2023-05-10T08:04:04.581Z,43487.13
2023-05-10T08:06:31.758Z,61557.66
2023-05-10T08:08:58.805Z,88954.91
2023-05-10T08:11:26.380Z,87006.75
2023-05-10T08:13:53.322Z,90247.16
2023-05-10T08:16:20.806Z,86371.59
2023-05-10T08:18:48.373Z,85059.56
2023-05-10T08:21:16.217Z,79496.53
2023-05-10T08:23:44.942Z,78554.00
2023-05-10T08:26:12.544Z,82428.34
2023-05-10T08:28:39.406Z,84584.47
2023-05-10T08:31:06.717Z,74595.34
2023-05-10T08:33:33.838Z,81648.97
2023-05-10T08:36:00.781Z,103809.28
2023-05-10T08:38:27.849Z,99587.34
2023-05-10T08:40:59.825Z,105888.09
2023-05-10T08:43:31.124Z,106942.69
2023-05-10T08:46:01.827Z,107815.75
2023-05-10T08:48:35.813Z,113743.91
2023-05-10T08:51:03.877Z,107655.06
2023-05-10T08:53:34.717Z,110907.81
2023-05-10T08:56:03.456Z,104045.84
2023-05-10T08:58:30.743Z,117940.31
2023-05-10T09:00:58.943Z,116378.59
2023-05-10T09:03:25.987Z,62107.34
2023-05-10T09:05:53.008Z,91320.84
2023-05-10T09:08:20.958Z,102086.19
2023-05-10T09:10:49.281Z,113273.91
2023-05-10T09:13:19.324Z,117940.31
2023-05-10T09:15:46.790Z,117940.31
2023-05-10T09:18:14.192Z,117940.31
2023-05-10T09:20:41.981Z,117940.31
2023-05-10T09:23:09.706Z,117940.31
2023-05-10T09:25:36.870Z,117940.31
2023-05-10T09:28:07.362Z,117940.31
2023-05-10T09:30:34.348Z,117940.31
2023-05-10T09:33:02.014Z,117940.31
2023-05-10T09:35:32.610Z,117940.31
2023-05-10T09:38:05.539Z,117940.31
2023-05-10T09:40:33.183Z,117940.31
2023-05-10T09:43:04.164Z,117940.31
2023-05-10T09:45:32.960Z,117940.31
2023-05-10T09:48:02.078Z,117366.00
2023-05-10T09:50:29.967Z,116937.94
2023-05-10T09:53:02.247Z,116086.25
2023-05-10T09:55:45.955Z,110025.63
2023-05-10T09:58:14.350Z,105431.69
2023-05-10T10:00:43.011Z,108703.78
2023-05-10T10:03:21.108Z,105619.72
2023-05-10T10:05:49.187Z,109788.72
2023-05-10T10:08:17.031Z,113801.09
2023-05-10T10:10:50.354Z,111449.47
2023-05-10T10:13:18.474Z,115014.47
2023-05-10T10:15:46.219Z,116310.81
2023-05-10T10:18:15.936Z,117940.31
2023-05-10T10:20:43.205Z,117940.31
2023-05-10T10:23:10.843Z,117777.13
2023-05-10T10:25:39.739Z,117641.47
2023-05-10T10:28:18.480Z,115541.84
2023-05-10T10:30:52.026Z,116984.56
2023-05-10T10:33:28.889Z,116048.13
2023-05-10T10:35:59.074Z,108828.56
2023-05-10T10:38:26.056Z,112554.22
2023-05-10T10:41:28.104Z,109386.88
2023-05-10T10:44:26.446Z,105507.75
2023-05-10T10:47:27.947Z,109592.03
2023-05-10T10:50:01.196Z,112742.59
2023-05-10T10:52:34.583Z,113947.19
2023-05-10T10:55:07.362Z,114633.25
2023-05-10T10:57:44.784Z,117586.38
2023-05-10T11:00:31.820Z,117940.31
2023-05-10T11:03:10.101Z,117940.31
2023-05-10T11:05:41.695Z,110213.91
2023-05-10T11:08:13.031Z,108118.09
2023-05-10T11:10:40.921Z,92721.31
2023-05-10T11:13:10.167Z,77349.44
2023-05-10T11:15:39.014Z,89706.22
2023-05-10T11:18:31.231Z,91453.50
2023-05-10T11:21:08.343Z,99148.50
2023-05-10T11:23:41.451Z,102962.44
2023-05-10T11:26:12.510Z,113987.41
2023-05-10T11:28:50.148Z,100809.13
2023-05-10T11:31:19.076Z,117940.31
2023-05-10T11:33:47.369Z,117940.31
2023-05-10T11:36:17.519Z,117940.31
2023-05-10T11:38:44.667Z,117940.31
2023-05-10T11:41:12.715Z,117940.31
2023-05-10T11:43:43.569Z,117940.31
2023-05-10T11:46:14.879Z,117940.31
2023-05-10T11:48:42.676Z,117940.31
2023-05-10T11:51:10.549Z,117940.31
2023-05-10T11:53:38.277Z,117940.31
2023-05-10T11:56:10.474Z,117940.31
2023-05-10T11:58:39.092Z,117940.31
2023-05-10T12:01:07.990Z,117940.31
2023-05-10T12:03:35.685Z,117940.31
2023-05-10T12:06:04.298Z,117940.31
2023-05-10T12:08:32.071Z,117940.31
2023-05-10T12:11:08.128Z,117940.31
2023-05-10T12:13:42.516Z,112554.22
2023-05-10T12:16:18.228Z,116342.59
2023-05-10T12:18:45.758Z,117270.63
2023-05-10T12:21:13.764Z,117940.31
2023-05-10T12:23:41.214Z,117940.31
2023-05-10T12:26:10.457Z,117529.16
2023-05-10T12:28:38.624Z,108242.81
2023-05-10T12:31:06.839Z,110224.47
2023-05-10T12:33:51.797Z,109452.44
2023-05-10T12:36:24.942Z,116181.59
2023-05-10T12:38:53.767Z,117342.69
2023-05-10T12:41:21.084Z,105668.34
2023-05-10T12:43:48.295Z,105558.44
2023-05-10T12:46:18.790Z,69966.16
2023-05-10T12:48:48.102Z,100739.50
2023-05-10T12:51:18.461Z,81394.81
2023-05-10T12:53:49.328Z,54967.13
2023-05-10T12:56:16.299Z,43919.88
2023-05-10T12:58:43.370Z,41654.66
2023-05-10T13:01:10.206Z,116327.75
2023-05-10T13:03:39.324Z,117940.31
2023-05-10T13:06:07.443Z,84605.47
2023-05-10T13:08:36.738Z,106513.63
2023-05-10T13:11:04.179Z,72859.56
2023-05-10T13:13:31.613Z,81835.94
2023-05-10T13:16:00.858Z,113930.25
2023-05-10T13:18:27.883Z,86594.53
2023-05-10T13:21:00.778Z,98899.56
2023-05-10T13:23:32.522Z,117940.31
2023-05-10T13:26:00.424Z,84130.44
2023-05-10T13:28:27.526Z,90845.03
2023-05-10T13:30:54.343Z,103646.66
2023-05-10T13:33:21.684Z,115092.81
2023-05-10T13:35:48.722Z,81737.19
2023-05-10T13:38:15.422Z,115154.25
2023-05-10T13:40:42.210Z,102611.91
2023-05-10T13:43:09.293Z,76776.63
2023-05-10T13:45:36.027Z,86668.13
2023-05-10T13:48:03.048Z,105566.91
2023-05-10T13:50:29.933Z,92580.19
2023-05-10T13:52:56.970Z,89506.25
2023-05-10T13:55:24.603Z,57933.19
2023-05-10T13:57:51.608Z,57112.66
2023-05-10T14:00:18.868Z,42827.69
2023-05-10T14:02:45.748Z,63405.63
2023-05-10T14:05:12.917Z,82968.31
2023-05-10T14:07:40.997Z,80076.00
2023-05-10T14:10:08.170Z,105490.84
2023-05-10T14:12:34.949Z,99275.09
2023-05-10T14:15:02.243Z,94920.88
2023-05-10T14:17:30.496Z,83409.59
2023-05-10T14:19:58.032Z,92755.00
2023-05-10T14:22:24.813Z,89228.47
2023-05-10T14:24:53.585Z,89775.66
2023-05-10T14:27:20.697Z,98625.34
2023-05-10T14:29:49.946Z,86329.53
2023-05-10T14:32:16.723Z,100275.22
2023-05-10T14:34:43.707Z,70615.47
2023-05-10T14:37:12.685Z,53869.78
2023-05-10T14:39:39.584Z,30144.91
2023-05-10T14:42:07.906Z,54620.78
2023-05-10T14:44:35.113Z,37350.41
2023-05-10T14:47:02.065Z,40750.19
2023-05-10T14:49:28.982Z,42139.22
2023-05-10T14:51:55.967Z,19717.19
2023-05-10T14:54:23.558Z,8719.28
2023-05-10T14:56:51.172Z,7212.25
2023-05-10T14:59:18.087Z,4896.13
2023-05-10T15:01:45.746Z,-997.09
2023-05-10T15:04:17.148Z,-8624.53
2023-05-10T15:06:44.581Z,-9675.38
2023-05-10T15:09:11.597Z,-4418.16
2023-05-10T15:11:39.109Z,15922.44
2023-05-10T15:14:06.234Z,1636.53
2023-05-10T15:16:35.638Z,1636.53
2023-05-10T15:19:04.067Z,1636.53
2023-05-10T15:21:38.782Z,2954.03
2023-05-10T15:24:08.427Z,13338.91
2023-05-10T15:26:35.422Z,9645.25
2023-05-10T15:29:04.403Z,77370.41
2023-05-10T15:31:33.361Z,105176.03
2023-05-10T15:34:00.915Z,117156.22
2023-05-10T15:36:29.201Z,114681.97
2023-05-10T15:38:56.372Z,114510.44
2023-05-10T15:41:23.838Z,114722.19
2023-05-10T15:43:50.569Z,114315.59
2023-05-10T15:46:17.452Z,114984.81
2023-05-10T15:48:44.238Z,112617.72
2023-05-10T15:51:11.183Z,113970.47
2023-05-10T15:53:38.017Z,114099.63
2023-05-10T15:56:05.821Z,105869.06
2023-05-10T15:58:32.563Z,111741.50
2023-05-10T16:00:59.650Z,107553.59
2023-05-10T16:03:26.841Z,110275.25
2023-05-10T16:05:53.995Z,107344.31
2023-05-10T16:08:20.753Z,105176.03
2023-05-10T16:10:47.590Z,105226.72
2023-05-10T16:13:19.983Z,109033.69
2023-05-10T16:15:47.110Z,99821.53
2023-05-10T16:18:13.892Z,110213.91
2023-05-10T16:20:41.440Z,108593.81
2023-05-10T16:23:08.703Z,110165.25
2023-05-10T16:25:35.917Z,96358.41
2023-05-10T16:28:02.936Z,86958.38
2023-05-10T16:30:31.134Z,85593.56
2023-05-10T16:32:58.486Z,80852.97
2023-05-10T16:35:25.769Z,74746.31
2023-05-10T16:37:53.295Z,67485.06
2023-05-10T16:40:20.629Z,60863.84
2023-05-10T16:42:47.402Z,62811.84
2023-05-10T16:45:14.571Z,53187.75
2023-05-10T16:47:41.787Z,54295.34
2023-05-10T16:50:09.114Z,54520.66
2023-05-10T16:52:37.161Z,61386.28
2023-05-10T16:55:04.675Z,70726.50
2023-05-10T16:57:33.106Z,75989.97
2023-05-10T16:59:59.900Z,58831.16
2023-05-10T17:02:26.860Z,48550.06
2023-05-10T17:04:55.380Z,52810.28
2023-05-10T17:07:24.126Z,45351.66
2023-05-10T17:09:52.998Z,46151.00
2023-05-10T17:12:19.898Z,45351.66
2023-05-10T17:14:47.615Z,39760.72
2023-05-10T17:17:14.468Z,33115.16
2023-05-10T17:19:44.937Z,25420.41
2023-05-10T17:22:12.944Z,23035.47
2023-05-10T17:24:39.955Z,23830.28
2023-05-10T17:27:07.287Z,24625.25
2023-05-10T17:29:34.083Z,27806.81
2023-05-10T17:32:03.295Z,27276.38
2023-05-10T17:34:30.122Z,15624.94
2023-05-10T17:36:58.347Z,20916.72
2023-05-10T17:39:25.170Z,20651.97
2023-05-10T17:41:53.357Z,19593.13
2023-05-10T17:44:20.217Z,16682.72
2023-05-10T17:46:47.291Z,18799.16
2023-05-10T17:49:14.214Z,12981.75
2023-05-10T17:51:44.217Z,16947.22
2023-05-10T17:54:11.055Z,18534.53
2023-05-10T17:56:37.910Z,18005.38
2023-05-10T17:59:05.545Z,21181.50
2023-05-10T18:01:32.444Z,20122.50
2023-05-10T18:03:59.230Z,11660.84
2023-05-10T18:06:26.609Z,4799.31
2023-05-10T18:08:53.377Z,6381.66
2023-05-10T18:11:20.473Z,7964.66
2023-05-10T18:13:47.630Z,5063.00
2023-05-10T18:16:14.474Z,4272.00
2023-05-10T18:18:41.354Z,3744.75
2023-05-10T18:21:08.161Z,3217.59
2023-05-10T18:23:35.311Z,1900.00
2023-05-10T18:26:02.781Z,2690.50
2023-05-10T18:28:30.950Z,2690.50
2023-05-10T18:30:58.477Z,9020.34
2023-05-10T18:33:25.405Z,3744.75
2023-05-10T18:35:52.322Z,5063.00
2023-05-10T18:38:19.657Z,1900.00
2023-05-10T18:40:51.652Z,-2050.06
2023-05-10T18:43:18.432Z,-2576.44
2023-05-10T18:46:08.079Z,-3365.84
2023-05-10T18:48:34.786Z,-4944.22
2023-05-10T18:51:01.927Z,-5470.19
2023-05-10T18:53:32.672Z,-5996.09
2023-05-10T18:56:00.342Z,-5470.19
2023-05-10T18:58:29.184Z,-6521.91
2023-05-10T19:00:56.263Z,-7047.69
2023-05-10T19:03:24.419Z,-7047.69
2023-05-10T19:05:51.333Z,-10200.72
2023-05-10T19:08:18.308Z,-10725.97
2023-05-10T19:10:49.596Z,-12301.31
2023-05-10T19:13:16.350Z,-13613.59
2023-05-10T19:15:43.498Z,-14925.41
2023-05-10T19:18:13.849Z,-15974.56
2023-05-10T19:20:42.442Z,-15187.72
2023-05-10T19:23:10.409Z,-15187.72
2023-05-10T19:25:42.612Z,-16761.22
2023-05-10T19:28:14.184Z,-18334.06
2023-05-10T19:30:41.686Z,-18596.16
2023-05-10T19:33:10.296Z,-18334.06
2023-05-10T19:35:39.018Z,-17809.88
2023-05-10T19:38:06.009Z,-17547.72
2023-05-10T19:40:35.129Z,-17809.88
2023-05-10T19:43:02.882Z,-18334.06
2023-05-10T19:45:30.399Z,-17285.59
2023-05-10T19:47:58.679Z,-18596.16
2023-05-10T19:50:27.697Z,-18596.16
2023-05-10T19:52:55.102Z,-18597.69
2023-05-10T19:55:29.712Z,-18597.69
2023-05-10T19:57:56.859Z,-18597.69
2023-05-10T20:00:29.071Z,-18597.69
2023-05-10T20:02:56.229Z,-18597.69
2023-05-10T20:05:24.649Z,-18597.69
2023-05-10T20:07:51.990Z,-18334.06
2023-05-10T20:10:19.504Z,-17809.88
2023-05-10T20:12:52.393Z,-17547.72
2023-05-10T20:15:23.124Z,-17023.41
2023-05-10T20:17:53.324Z,-16761.22
2023-05-10T20:20:21.330Z,-16761.22
2023-05-10T20:22:50.110Z,-16761.22
2023-05-10T20:25:18.082Z,-17547.72
2023-05-10T20:27:51.500Z,-16236.81
2023-05-10T20:30:18.689Z,-17023.41
2023-05-10T20:32:52.017Z,-16761.22
2023-05-10T20:35:18.968Z,-17285.59
2023-05-10T20:37:45.809Z,-17285.59
2023-05-10T20:40:13.584Z,-17547.72
2023-05-10T20:42:40.301Z,-16499.03
2023-05-10T20:45:09.009Z,-16761.22
2023-05-10T20:47:36.340Z,-16236.81
2023-05-10T20:50:04.953Z,-15974.56
2023-05-10T20:52:32.223Z,-16236.81
2023-05-10T20:55:02.271Z,-16236.81
2023-05-10T20:57:29.200Z,-16761.22
2023-05-10T20:59:59.664Z,-17809.88
2023-05-10T21:02:27.142Z,-18334.06
2023-05-10T21:05:00.469Z,-18596.16
2023-05-10T21:07:27.456Z,-18596.16
2023-05-10T21:09:54.293Z,-18596.16
2023-05-10T21:12:22.204Z,-18596.16
2023-05-10T21:14:49.057Z,-18596.16
2023-05-10T21:17:21.909Z,-18596.16
2023-05-10T21:19:48.824Z,-18596.16
2023-05-10T21:22:17.026Z,-18597.69
2023-05-10T21:24:44.323Z,-18597.69
2023-05-10T21:27:14.675Z,-18597.69
2023-05-10T21:29:41.800Z,-18597.69
2023-05-10T21:32:08.997Z,-18597.69
2023-05-10T21:34:41.607Z,-18597.69
2023-05-10T21:37:09.298Z,-18597.69
2023-05-10T21:39:36.619Z,-18597.69
2023-05-10T21:42:04.021Z,-18597.69
2023-05-10T21:44:32.267Z,-18597.69
2023-05-10T21:46:59.341Z,-18597.69
2023-05-10T21:49:26.486Z,-18597.69
2023-05-10T21:51:54.501Z,-18597.69
2023-05-10T21:54:21.421Z,-18597.69
2023-05-10T21:56:48.711Z,-18597.69
2023-05-10T21:59:18.571Z,-18597.69
2023-05-10T22:01:45.728Z,-18597.69
2023-05-10T22:04:12.798Z,-18597.69
2023-05-10T22:06:39.654Z,-18597.69
2023-05-10T22:09:07.130Z,-18597.69
2023-05-10T22:11:38.902Z,-18597.69
2023-05-10T22:14:05.954Z,-18597.69
2023-05-10T22:16:35.206Z,-18597.69
2023-05-10T22:19:02.075Z,-18597.69
2023-05-10T22:21:30.102Z,-18597.69
2023-05-10T22:23:57.102Z,-18597.69
2023-05-10T22:26:24.055Z,-18597.69
2023-05-10T22:29:01.034Z,-18597.69
2023-05-10T22:31:28.421Z,-18597.69
2023-05-10T22:33:56.529Z,-18597.69
2023-05-10T22:36:23.441Z,-18597.69
2023-05-10T22:38:50.374Z,-18597.69
2023-05-10T22:41:17.919Z,-18597.69
2023-05-10T22:43:45.912Z,-18597.69
2023-05-10T22:46:13.636Z,-18597.69
2023-05-10T22:48:42.718Z,-18597.69
2023-05-10T22:51:10.019Z,-18597.69
2023-05-10T22:53:42.122Z,-18597.69
2023-05-10T22:56:09.073Z,-18597.69
2023-05-10T22:58:36.202Z,-18597.69
2023-05-10T23:01:03.402Z,-18597.69
2023-05-10T23:03:30.755Z,-18597.69
2023-05-10T23:05:57.693Z,-18597.69
2023-05-10T23:08:26.681Z,-18597.69
2023-05-10T23:10:53.683Z,-18597.69
2023-05-10T23:13:21.996Z,-18597.69
2023-05-10T23:15:50.313Z,-18597.69
2023-05-10T23:18:18.545Z,-18597.69
2023-05-10T23:20:46.311Z,-18597.69
2023-05-10T23:23:14.657Z,-18597.69
2023-05-10T23:25:41.833Z,-18597.69
2023-05-10T23:28:12.114Z,-18597.69
2023-05-10T23:30:39.155Z,-18597.69
2023-05-10T23:33:06.474Z,-18597.69
2023-05-10T23:35:34.601Z,-18597.69
2023-05-10T23:38:01.515Z,-18597.69
2023-05-10T23:40:29.482Z,-18597.69
2023-05-10T23:42:56.744Z,-18597.69
2023-05-10T23:45:23.721Z,-18597.69
2023-05-10T23:47:50.690Z,-18597.69
2023-05-10T23:50:18.060Z,-18597.69
2023-05-10T23:52:46.141Z,-18597.69
2023-05-10T23:55:13.195Z,-18597.69
2023-05-10T23:57:40.208Z,-18597.69
